This is the latest recevied weather packets stored in our database for station/object N2RFA-13. If no packets are shown the sender has not sent any weather packets the latest 10 day(s).
| Time | Temp. | Humidity | Pressure | Rain* | Wind** | Luminosity | Snow |
|---|---|---|---|---|---|---|---|
| 1777535124 | 7.78° C | 94% | 1008.7 hPa | 0.25 mm | - | - | - |
| 1777529723 | 7.78° C | 94% | 1009.6 hPa | 0.76 mm | - | - | - |
| 1777528816 | 7.78° C | 94% | 1009.8 hPa | 1.52 mm | - | - | - |
| 1777526111 | 7.78° C | 94% | 1010 hPa | 5.33 mm | - | - | - |
| 1777519864 | 8.33° C | 92% | 1011.1 hPa | 2.54 mm | - | - | - |
| 1777511748 | 9.44° C | 89% | 1011.6 hPa | 1.27 mm | - | - | - |
| 1777509946 | 10° C | 86% | 1011.4 hPa | 0.25 mm | - | - | - |
| 1777500933 | 12.78° C | 70% | 1011.4 hPa | 0 mm | - | - | - |
| 1777500033 | 13.33° C | 68% | 1011.5 hPa | 0 mm | - | - | - |
| 1777498231 | 13.89° C | 68% | 1011.7 hPa | 0 mm | - | - | - |
| 1777496428 | 14.44° C | 66% | 1011.9 hPa | 0 mm | - | - | - |
| 1777495526 | 15° C | 65% | 1012 hPa | 0 mm | - | - | - |
| 1777494629 | 15° C | 64% | 1012.3 hPa | 0 mm | - | - | - |
| 1777493726 | 15.56° C | 63% | 1012.2 hPa | 0 mm | - | - | - |
| 1777492824 | 16.11° C | 62% | 1012.6 hPa | 0 mm | - | - | - |
| 1777490125 | 17.22° C | 57% | 1013 hPa | 0 mm | - | - | - |
| 1777489218 | 17.78° C | 55% | 1013.2 hPa | 0 mm | - | - | - |
| 1777486519 | 18.89° C | 53% | 1013.7 hPa | 0 mm | - | - | - |
| 1777485618 | 18.33° C | 53% | 1013.8 hPa | 0 mm | - | - | - |
| 1777484710 | 18.33° C | 53% | 1013.8 hPa | 0 mm | - | - | - |
| 1777477551 | 16.11° C | 55% | 1015.5 hPa | 0 mm | - | - | - |
| 1777476650 | 15.56° C | 55% | 1015.6 hPa | 0 mm | - | - | - |
| 1777473953 | 15° C | 56% | 1015.7 hPa | 0 mm | - | - | - |
| 1777472144 | 15° C | 56% | 1015.6 hPa | 0 mm | - | - | - |
| 1777471244 | 15° C | 55% | 1015.8 hPa | 0 mm | - | - | - |
* Rain latest hour (hover to see other rain measurements)
** Current wind speed in m/s (hover to see current wind gust speed)